sensor_id;sensor_type;location;lat;lon;timestamp;pressure;altitude;pressure_sealevel;temperature;humidity
77192;BME280;66172;48.526;8.078;2023-10-09T00:02:07;100247.63;;;13.09;74.09
77192;BME280;66172;48.526;8.078;2023-10-09T00:04:33;100242.56;;;13.19;73.71
77192;BME280;66172;48.526;8.078;2023-10-09T00:07:03;100240.72;;;13.56;71.89
77192;BME280;66172;48.526;8.078;2023-10-09T00:09:29;100245.97;;;13.61;71.20
77192;BME280;66172;48.526;8.078;2023-10-09T00:11:58;100244.38;;;13.60;71.79
77192;BME280;66172;48.526;8.078;2023-10-09T00:14:30;100243.94;;;13.70;71.58
77192;BME280;66172;48.526;8.078;2023-10-09T00:16:56;100239.97;;;13.80;70.94
77192;BME280;66172;48.526;8.078;2023-10-09T00:19:46;100250.16;;;13.59;71.69
77192;BME280;66172;48.526;8.078;2023-10-09T00:22:25;100241.91;;;13.34;72.57
77192;BME280;66172;48.526;8.078;2023-10-09T00:24:57;100234.31;;;13.40;72.55
77192;BME280;66172;48.526;8.078;2023-10-09T00:27:42;100242.75;;;13.47;72.22
77192;BME280;66172;48.526;8.078;2023-10-09T00:30:13;100246.63;;;13.13;73.60
77192;BME280;66172;48.526;8.078;2023-10-09T00:32:41;100237.59;;;13.33;73.10
77192;BME280;66172;48.526;8.078;2023-10-09T00:35:09;100234.69;;;13.50;72.20
77192;BME280;66172;48.526;8.078;2023-10-09T00:37:53;100229.22;;;13.63;71.40
77192;BME280;66172;48.526;8.078;2023-10-09T00:40:32;100227.25;;;13.51;71.81
77192;BME280;66172;48.526;8.078;2023-10-09T00:43:00;100228.72;;;13.36;72.75
77192;BME280;66172;48.526;8.078;2023-10-09T00:45:32;100228.84;;;13.40;72.26
77192;BME280;66172;48.526;8.078;2023-10-09T00:47:59;100226.75;;;13.25;72.82
77192;BME280;66172;48.526;8.078;2023-10-09T00:50:28;100220.91;;;13.47;72.09
77192;BME280;66172;48.526;8.078;2023-10-09T00:53:02;100221.50;;;13.65;71.17
77192;BME280;66172;48.526;8.078;2023-10-09T00:55:32;100232.88;;;13.67;70.86
77192;BME280;66172;48.526;8.078;2023-10-09T00:58:14;100217.44;;;13.26;72.58
77192;BME280;66172;48.526;8.078;2023-10-09T01:00:43;100222.56;;;13.07;73.48
77192;BME280;66172;48.526;8.078;2023-10-09T01:03:12;100222.78;;;13.34;72.45
77192;BME280;66172;48.526;8.078;2023-10-09T01:05:53;100212.03;;;13.17;72.88
77192;BME280;66172;48.526;8.078;2023-10-09T01:08:40;100211.75;;;12.98;73.94
77192;BME280;66172;48.526;8.078;2023-10-09T01:13:41;100206.66;;;12.88;74.31
77192;BME280;66172;48.526;8.078;2023-10-09T01:16:21;100210.59;;;12.78;74.86
77192;BME280;66172;48.526;8.078;2023-10-09T01:18:50;100212.38;;;12.95;74.56
77192;BME280;66172;48.526;8.078;2023-10-09T01:21:17;100216.25;;;12.94;74.13
77192;BME280;66172;48.526;8.078;2023-10-09T01:23:45;100216.41;;;12.97;73.88
77192;BME280;66172;48.526;8.078;2023-10-09T01:26:30;100213.84;;;12.92;74.07
77192;BME280;66172;48.526;8.078;2023-10-09T01:29:08;100200.81;;;12.98;73.77
77192;BME280;66172;48.526;8.078;2023-10-09T01:31:43;100200.56;;;13.12;73.11
77192;BME280;66172;48.526;8.078;2023-10-09T01:34:33;100204.44;;;13.02;73.63
77192;BME280;66172;48.526;8.078;2023-10-09T01:37:15;100201.91;;;12.43;76.11
77192;BME280;66172;48.526;8.078;2023-10-09T01:39:45;100205.28;;;12.40;76.30
77192;BME280;66172;48.526;8.078;2023-10-09T01:42:14;100202.03;;;12.47;76.11
77192;BME280;66172;48.526;8.078;2023-10-09T01:44:50;100205.97;;;12.58;75.73
77192;BME280;66172;48.526;8.078;2023-10-09T01:47:17;100200.09;;;12.68;75.23
77192;BME280;66172;48.526;8.078;2023-10-09T01:49:44;100203.97;;;12.67;75.47
77192;BME280;66172;48.526;8.078;2023-10-09T01:52:15;100196.78;;;12.83;74.42
77192;BME280;66172;48.526;8.078;2023-10-09T01:54:45;100194.09;;;12.75;74.74
77192;BME280;66172;48.526;8.078;2023-10-09T01:57:15;100191.88;;;12.89;74.30
77192;BME280;66172;48.526;8.078;2023-10-09T01:59:44;100194.22;;;12.78;74.63
77192;BME280;66172;48.526;8.078;2023-10-09T02:02:12;100194.59;;;12.77;75.06
77192;BME280;66172;48.526;8.078;2023-10-09T02:04:40;100183.34;;;12.37;76.58
77192;BME280;66172;48.526;8.078;2023-10-09T02:07:06;100182.63;;;12.28;77.00
77192;BME280;66172;48.526;8.078;2023-10-09T02:09:35;100186.78;;;12.25;77.15
77192;BME280;66172;48.526;8.078;2023-10-09T02:12:01;100181.81;;;12.27;77.02
77192;BME280;66172;48.526;8.078;2023-10-09T02:14:28;100179.34;;;12.34;76.65
77192;BME280;66172;48.526;8.078;2023-10-09T02:16:53;100180.16;;;12.35;76.52
77192;BME280;66172;48.526;8.078;2023-10-09T02:19:29;100181.06;;;12.60;75.32
77192;BME280;66172;48.526;8.078;2023-10-09T02:22:02;100181.13;;;12.72;74.79
77192;BME280;66172;48.526;8.078;2023-10-09T02:24:41;100186.59;;;12.72;74.67
77192;BME280;66172;48.526;8.078;2023-10-09T02:27:16;100174.31;;;12.78;74.58
77192;BME280;66172;48.526;8.078;2023-10-09T02:30:03;100172.91;;;12.92;73.63
77192;BME280;66172;48.526;8.078;2023-10-09T02:32:37;100183.91;;;12.63;75.21
77192;BME280;66172;48.526;8.078;2023-10-09T02:35:05;100175.81;;;12.55;75.31
77192;BME280;66172;48.526;8.078;2023-10-09T02:37:46;100173.41;;;12.32;76.21
77192;BME280;66172;48.526;8.078;2023-10-09T02:40:14;100167.16;;;12.32;76.31
77192;BME280;66172;48.526;8.078;2023-10-09T02:42:49;100166.69;;;12.30;76.42
77192;BME280;66172;48.526;8.078;2023-10-09T02:45:15;100172.69;;;12.23;76.63
77192;BME280;66172;48.526;8.078;2023-10-09T02:47:43;100171.75;;;12.19;76.64
77192;BME280;66172;48.526;8.078;2023-10-09T02:50:15;100167.75;;;12.17;76.90
77192;BME280;66172;48.526;8.078;2023-10-09T02:52:48;100167.63;;;12.13;76.88
77192;BME280;66172;48.526;8.078;2023-10-09T02:55:26;100165.19;;;12.20;76.62
77192;BME280;66172;48.526;8.078;2023-10-09T02:57:56;100168.75;;;12.12;77.13
77192;BME280;66172;48.526;8.078;2023-10-09T03:00:31;100169.44;;;12.30;76.21
77192;BME280;66172;48.526;8.078;2023-10-09T03:02:58;100163.88;;;12.18;76.76
77192;BME280;66172;48.526;8.078;2023-10-09T03:05:25;100164.50;;;12.23;76.89
77192;BME280;66172;48.526;8.078;2023-10-09T03:07:54;100163.88;;;12.18;76.90
77192;BME280;66172;48.526;8.078;2023-10-09T03:10:22;100160.44;;;12.29;76.51
77192;BME280;66172;48.526;8.078;2023-10-09T03:12:49;100164.13;;;12.33;76.42
77192;BME280;66172;48.526;8.078;2023-10-09T03:15:19;100166.25;;;12.28;76.49
77192;BME280;66172;48.526;8.078;2023-10-09T03:17:46;100168.03;;;12.03;77.57
77192;BME280;66172;48.526;8.078;2023-10-09T03:20:14;100164.66;;;12.27;76.74
77192;BME280;66172;48.526;8.078;2023-10-09T03:22:44;100160.31;;;12.46;75.73
77192;BME280;66172;48.526;8.078;2023-10-09T03:25:14;100154.72;;;12.43;75.86
77192;BME280;66172;48.526;8.078;2023-10-09T03:27:43;100154.59;;;12.19;77.07
77192;BME280;66172;48.526;8.078;2023-10-09T03:30:13;100154.66;;;12.10;77.21
77192;BME280;66172;48.526;8.078;2023-10-09T03:32:44;100158.16;;;12.11;77.35
77192;BME280;66172;48.526;8.078;2023-10-09T03:35:10;100152.06;;;12.14;77.50
77192;BME280;66172;48.526;8.078;2023-10-09T03:37:40;100148.88;;;12.12;77.43
77192;BME280;66172;48.526;8.078;2023-10-09T03:40:07;100144.06;;;12.09;77.50
77192;BME280;66172;48.526;8.078;2023-10-09T03:42:33;100151.06;;;12.18;77.20
77192;BME280;66172;48.526;8.078;2023-10-09T03:45:02;100143.41;;;12.12;77.66
77192;BME280;66172;48.526;8.078;2023-10-09T03:47:38;100138.63;;;12.09;77.58
77192;BME280;66172;48.526;8.078;2023-10-09T03:50:08;100138.44;;;12.14;77.51
77192;BME280;66172;48.526;8.078;2023-10-09T03:52:49;100141.66;;;12.07;77.70
77192;BME280;66172;48.526;8.078;2023-10-09T03:55:15;100147.03;;;12.24;77.13
77192;BME280;66172;48.526;8.078;2023-10-09T03:57:41;100144.28;;;12.45;75.87
77192;BME280;66172;48.526;8.078;2023-10-09T04:00:11;100133.53;;;12.28;76.71
77192;BME280;66172;48.526;8.078;2023-10-09T04:02:57;100136.56;;;12.26;76.75
77192;BME280;66172;48.526;8.078;2023-10-09T04:05:24;100136.16;;;12.16;77.44
77192;BME280;66172;48.526;8.078;2023-10-09T04:07:50;100132.06;;;12.10;77.53
77192;BME280;66172;48.526;8.078;2023-10-09T04:10:20;100131.56;;;12.08;77.64
77192;BME280;66172;48.526;8.078;2023-10-09T04:13:04;100139.59;;;12.04;78.26
77192;BME280;66172;48.526;8.078;2023-10-09T04:15:36;100131.44;;;12.04;77.98
77192;BME280;66172;48.526;8.078;2023-10-09T04:18:02;100141.66;;;12.07;77.82
77192;BME280;66172;48.526;8.078;2023-10-09T04:20:30;100141.16;;;12.14;77.37
77192;BME280;66172;48.526;8.078;2023-10-09T04:22:59;100146.91;;;12.41;75.86
77192;BME280;66172;48.526;8.078;2023-10-09T04:25:31;100136.53;;;12.35;76.17
77192;BME280;66172;48.526;8.078;2023-10-09T04:28:08;100143.16;;;12.46;75.84
77192;BME280;66172;48.526;8.078;2023-10-09T04:30:38;100135.31;;;12.44;75.67
77192;BME280;66172;48.526;8.078;2023-10-09T04:33:12;100139.69;;;12.37;76.35
77192;BME280;66172;48.526;8.078;2023-10-09T04:36:07;100136.97;;;12.37;76.43
77192;BME280;66172;48.526;8.078;2023-10-09T04:38:53;100128.47;;;12.38;76.24
77192;BME280;66172;48.526;8.078;2023-10-09T04:41:42;100138.56;;;12.38;76.51
77192;BME280;66172;48.526;8.078;2023-10-09T04:44:11;100145.97;;;12.37;76.60
77192;BME280;66172;48.526;8.078;2023-10-09T04:46:49;100137.16;;;12.32;76.84
77192;BME280;66172;48.526;8.078;2023-10-09T04:49:35;100137.63;;;12.34;76.69
77192;BME280;66172;48.526;8.078;2023-10-09T04:52:19;100137.91;;;12.41;76.32
77192;BME280;66172;48.526;8.078;2023-10-09T04:55:06;100130.81;;;12.28;77.17
77192;BME280;66172;48.526;8.078;2023-10-09T04:57:36;100130.66;;;12.24;77.54
77192;BME280;66172;48.526;8.078;2023-10-09T05:00:16;100123.94;;;12.22;77.58
77192;BME280;66172;48.526;8.078;2023-10-09T05:03:02;100131.16;;;12.18;78.03
77192;BME280;66172;48.526;8.078;2023-10-09T05:05:39;100129.91;;;12.15;78.41
77192;BME280;66172;48.526;8.078;2023-10-09T05:08:12;100132.09;;;12.22;78.00
77192;BME280;66172;48.526;8.078;2023-10-09T05:10:57;100135.44;;;12.27;77.85
77192;BME280;66172;48.526;8.078;2023-10-09T05:13:27;100136.53;;;12.35;77.36
77192;BME280;66172;48.526;8.078;2023-10-09T05:16:06;100139.63;;;12.45;76.80
77192;BME280;66172;48.526;8.078;2023-10-09T05:18:49;100130.25;;;12.55;76.55
77192;BME280;66172;48.526;8.078;2023-10-09T05:21:53;100140.22;;;12.51;77.08
77192;BME280;66172;48.526;8.078;2023-10-09T05:24:24;100140.41;;;12.46;77.40
77192;BME280;66172;48.526;8.078;2023-10-09T05:26:52;100150.78;;;12.52;77.11
77192;BME280;66172;48.526;8.078;2023-10-09T05:29:25;100148.00;;;12.40;77.77
77192;BME280;66172;48.526;8.078;2023-10-09T05:31:54;100151.53;;;12.41;77.90
77192;BME280;66172;48.526;8.078;2023-10-09T05:34:29;100156.31;;;12.65;76.85
77192;BME280;66172;48.526;8.078;2023-10-09T05:37:14;100158.59;;;12.63;76.67
77192;BME280;66172;48.526;8.078;2023-10-09T05:39:46;100152.31;;;12.83;75.73
77192;BME280;66172;48.526;8.078;2023-10-09T05:42:28;100168.94;;;12.90;75.41
77192;BME280;66172;48.526;8.078;2023-10-09T05:45:08;100172.28;;;12.75;75.95
77192;BME280;66172;48.526;8.078;2023-10-09T05:47:55;100177.94;;;13.02;74.96
77192;BME280;66172;48.526;8.078;2023-10-09T05:50:32;100171.63;;;13.11;74.87
77192;BME280;66172;48.526;8.078;2023-10-09T05:53:03;100177.34;;;13.18;74.24
77192;BME280;66172;48.526;8.078;2023-10-09T05:55:30;100181.44;;;13.12;74.60
77192;BME280;66172;48.526;8.078;2023-10-09T05:57:59;100188.75;;;12.99;75.05
77192;BME280;66172;48.526;8.078;2023-10-09T06:00:53;100182.50;;;12.78;76.41
77192;BME280;66172;48.526;8.078;2023-10-09T06:03:51;100194.59;;;12.77;76.62
77192;BME280;66172;48.526;8.078;2023-10-09T06:06:20;100181.97;;;12.84;76.36
77192;BME280;66172;48.526;8.078;2023-10-09T06:09:00;100188.75;;;12.99;75.51
77192;BME280;66172;48.526;8.078;2023-10-09T06:11:42;100197.19;;;13.06;75.42
77192;BME280;66172;48.526;8.078;2023-10-09T06:14:22;100199.13;;;13.26;74.73
77192;BME280;66172;48.526;8.078;2023-10-09T06:17:11;100197.25;;;13.18;74.98
77192;BME280;66172;48.526;8.078;2023-10-09T06:19:37;100202.88;;;13.34;74.46
77192;BME280;66172;48.526;8.078;2023-10-09T06:22:10;100201.88;;;13.38;73.96
77192;BME280;66172;48.526;8.078;2023-10-09T06:25:05;100211.88;;;13.34;74.21
77192;BME280;66172;48.526;8.078;2023-10-09T06:27:38;100206.41;;;13.34;74.36
77192;BME280;66172;48.526;8.078;2023-10-09T06:30:18;100220.31;;;13.41;74.38
77192;BME280;66172;48.526;8.078;2023-10-09T06:32:44;100222.34;;;13.44;74.37
77192;BME280;66172;48.526;8.078;2023-10-09T06:35:17;100236.03;;;13.44;74.12
77192;BME280;66172;48.526;8.078;2023-10-09T06:37:57;100238.69;;;13.65;73.30
77192;BME280;66172;48.526;8.078;2023-10-09T06:43:20;100237.44;;;13.63;73.46
77192;BME280;66172;48.526;8.078;2023-10-09T06:45:47;100225.88;;;13.45;74.13
77192;BME280;66172;48.526;8.078;2023-10-09T06:48:25;100225.09;;;13.44;74.34
77192;BME280;66172;48.526;8.078;2023-10-09T06:51:04;100228.19;;;13.55;74.11
77192;BME280;66172;48.526;8.078;2023-10-09T06:53:39;100220.66;;;13.40;75.06
77192;BME280;66172;48.526;8.078;2023-10-09T06:56:21;100225.69;;;13.50;75.04
77192;BME280;66172;48.526;8.078;2023-10-09T06:59:10;100235.00;;;13.49;75.23
77192;BME280;66172;48.526;8.078;2023-10-09T07:01:42;100233.47;;;13.27;76.18
77192;BME280;66172;48.526;8.078;2023-10-09T07:04:08;100234.56;;;13.47;75.48
77192;BME280;66172;48.526;8.078;2023-10-09T07:06:53;100232.84;;;13.55;75.21
77192;BME280;66172;48.526;8.078;2023-10-09T07:09:22;100233.19;;;13.53;75.46
77192;BME280;66172;48.526;8.078;2023-10-09T07:11:52;100239.91;;;13.43;76.16
77192;BME280;66172;48.526;8.078;2023-10-09T07:14:20;100236.97;;;13.61;75.57
77192;BME280;66172;48.526;8.078;2023-10-09T07:17:18;100241.88;;;13.67;75.24
77192;BME280;66172;48.526;8.078;2023-10-09T07:19:59;100233.00;;;13.70;75.51
77192;BME280;66172;48.526;8.078;2023-10-09T07:22:44;100235.63;;;13.91;74.43
77192;BME280;66172;48.526;8.078;2023-10-09T07:25:20;100236.44;;;14.28;72.65
77192;BME280;66172;48.526;8.078;2023-10-09T07:28:04;100230.88;;;14.24;72.83
77192;BME280;66172;48.526;8.078;2023-10-09T07:30:44;100230.16;;;14.39;72.35
77192;BME280;66172;48.526;8.078;2023-10-09T07:33:11;100223.91;;;14.02;74.39
77192;BME280;66172;48.526;8.078;2023-10-09T07:35:38;100220.38;;;14.02;74.79
77192;BME280;66172;48.526;8.078;2023-10-09T07:38:21;100216.28;;;13.96;75.72
77192;BME280;66172;48.526;8.078;2023-10-09T07:40:54;100220.50;;;14.06;75.21
77192;BME280;66172;48.526;8.078;2023-10-09T07:43:37;100217.03;;;14.33;74.29
77192;BME280;66172;48.526;8.078;2023-10-09T07:46:13;100226.66;;;14.79;72.18
77192;BME280;66172;48.526;8.078;2023-10-09T07:49:00;100222.25;;;15.30;70.54
77192;BME280;66172;48.526;8.078;2023-10-09T07:51:38;100221.69;;;15.68;69.49
77192;BME280;66172;48.526;8.078;2023-10-09T07:54:04;100225.13;;;16.12;67.12
77192;BME280;66172;48.526;8.078;2023-10-09T07:56:34;100230.19;;;16.44;66.22
77192;BME280;66172;48.526;8.078;2023-10-09T07:59:07;100237.00;;;16.66;65.64
77192;BME280;66172;48.526;8.078;2023-10-09T08:01:44;100246.34;;;17.19;63.88
77192;BME280;66172;48.526;8.078;2023-10-09T08:04:40;100241.50;;;17.55;62.69
77192;BME280;66172;48.526;8.078;2023-10-09T08:07:16;100243.56;;;17.58;61.80
77192;BME280;66172;48.526;8.078;2023-10-09T08:09:45;100244.41;;;17.84;62.03
77192;BME280;66172;48.526;8.078;2023-10-09T08:12:15;100247.78;;;18.23;61.24
77192;BME280;66172;48.526;8.078;2023-10-09T08:15:03;100237.53;;;18.20;61.27
77192;BME280;66172;48.526;8.078;2023-10-09T08:17:54;100247.25;;;18.14;61.42
77192;BME280;66172;48.526;8.078;2023-10-09T08:20:24;100241.59;;;18.04;61.88
77192;BME280;66172;48.526;8.078;2023-10-09T08:22:53;100249.56;;;18.12;61.98
77192;BME280;66172;48.526;8.078;2023-10-09T08:25:22;100243.59;;;18.07;61.68
77192;BME280;66172;48.526;8.078;2023-10-09T08:27:59;100234.06;;;18.01;62.21
77192;BME280;66172;48.526;8.078;2023-10-09T08:30:41;100233.28;;;18.00;62.40
77192;BME280;66172;48.526;8.078;2023-10-09T08:33:16;100241.16;;;18.02;62.47
77192;BME280;66172;48.526;8.078;2023-10-09T08:36:07;100238.25;;;18.17;62.39
77192;BME280;66172;48.526;8.078;2023-10-09T08:38:33;100240.03;;;18.29;62.13
77192;BME280;66172;48.526;8.078;2023-10-09T08:41:12;100239.34;;;18.35;61.87
77192;BME280;66172;48.526;8.078;2023-10-09T08:43:53;100236.09;;;18.86;60.12
77192;BME280;66172;48.526;8.078;2023-10-09T08:48:48;100232.78;;;19.36;58.50
77192;BME280;66172;48.526;8.078;2023-10-09T08:51:16;100229.09;;;19.59;57.60
77192;BME280;66172;48.526;8.078;2023-10-09T08:53:43;100234.75;;;19.73;57.49
77192;BME280;66172;48.526;8.078;2023-10-09T08:56:16;100229.44;;;19.54;58.87
77192;BME280;66172;48.526;8.078;2023-10-09T08:58:55;100228.91;;;19.81;58.23
77192;BME280;66172;48.526;8.078;2023-10-09T09:01:23;100236.69;;;19.69;58.58
77192;BME280;66172;48.526;8.078;2023-10-09T09:03:51;100225.66;;;19.35;59.37
77192;BME280;66172;48.526;8.078;2023-10-09T09:06:18;100225.28;;;19.37;59.16
77192;BME280;66172;48.526;8.078;2023-10-09T09:08:46;100218.91;;;19.29;59.44
77192;BME280;66172;48.526;8.078;2023-10-09T09:11:18;100228.81;;;19.71;58.76
77192;BME280;66172;48.526;8.078;2023-10-09T09:14:04;100227.53;;;20.05;57.76
77192;BME280;66172;48.526;8.078;2023-10-09T09:16:33;100233.50;;;20.69;56.42
77192;BME280;66172;48.526;8.078;2023-10-09T09:19:02;100243.63;;;21.19;54.10
77192;BME280;66172;48.526;8.078;2023-10-09T09:21:33;100243.75;;;21.76;53.21
77192;BME280;66172;48.526;8.078;2023-10-09T09:24:09;100253.69;;;22.02;51.11
77192;BME280;66172;48.526;8.078;2023-10-09T09:26:47;100242.13;;;22.63;50.73
77192;BME280;66172;48.526;8.078;2023-10-09T09:29:45;100245.56;;;23.10;49.14
77192;BME280;66172;48.526;8.078;2023-10-09T09:32:28;100247.41;;;23.41;47.75
77192;BME280;66172;48.526;8.078;2023-10-09T09:35:04;100258.44;;;23.55;47.92
77192;BME280;66172;48.526;8.078;2023-10-09T09:37:32;100261.13;;;23.66;48.15
77192;BME280;66172;48.526;8.078;2023-10-09T09:40:19;100260.72;;;23.71;48.12
77192;BME280;66172;48.526;8.078;2023-10-09T09:42:57;100257.81;;;23.88;48.35
77192;BME280;66172;48.526;8.078;2023-10-09T09:45:37;100262.59;;;24.36;47.89
77192;BME280;66172;48.526;8.078;2023-10-09T09:48:07;100258.00;;;24.97;46.86
77192;BME280;66172;48.526;8.078;2023-10-09T09:50:36;100252.38;;;25.31;45.58
77192;BME280;66172;48.526;8.078;2023-10-09T09:55:49;100259.22;;;25.57;45.41
77192;BME280;66172;48.526;8.078;2023-10-09T09:58:18;100256.44;;;25.83;44.08
77192;BME280;66172;48.526;8.078;2023-10-09T10:00:47;100263.34;;;25.99;44.55
77192;BME280;66172;48.526;8.078;2023-10-09T10:03:29;100261.09;;;25.90;44.89
77192;BME280;66172;48.526;8.078;2023-10-09T10:05:59;100265.75;;;25.73;44.71
77192;BME280;66172;48.526;8.078;2023-10-09T10:08:30;100261.13;;;26.13;44.64
77192;BME280;66172;48.526;8.078;2023-10-09T10:10:58;100263.72;;;26.01;44.68
77192;BME280;66172;48.526;8.078;2023-10-09T10:16:15;100265.59;;;26.07;45.69
77192;BME280;66172;48.526;8.078;2023-10-09T10:21:35;100266.41;;;26.54;45.52
77192;BME280;66172;48.526;8.078;2023-10-09T10:29:35;100253.50;;;26.41;45.54
77192;BME280;66172;48.526;8.078;2023-10-09T10:32:04;100256.13;;;26.28;46.65
77192;BME280;66172;48.526;8.078;2023-10-09T10:34:53;100251.03;;;26.23;46.25
77192;BME280;66172;48.526;8.078;2023-10-09T10:40:10;100250.38;;;26.12;45.48
77192;BME280;66172;48.526;8.078;2023-10-09T10:42:48;100252.63;;;26.24;45.81
77192;BME280;66172;48.526;8.078;2023-10-09T10:45:34;100250.63;;;26.24;45.29
77192;BME280;66172;48.526;8.078;2023-10-09T10:48:02;100250.06;;;26.33;44.98
77192;BME280;66172;48.526;8.078;2023-10-09T10:50:33;100245.63;;;26.36;45.07
77192;BME280;66172;48.526;8.078;2023-10-09T10:53:12;100241.75;;;26.29;44.32
77192;BME280;66172;48.526;8.078;2023-10-09T10:56:01;100240.81;;;26.13;44.05
77192;BME280;66172;48.526;8.078;2023-10-09T10:58:40;100242.25;;;25.98;44.70
77192;BME280;66172;48.526;8.078;2023-10-09T11:01:35;100239.97;;;25.93;44.66
77192;BME280;66172;48.526;8.078;2023-10-09T11:04:29;100234.97;;;25.80;45.04
77192;BME280;66172;48.526;8.078;2023-10-09T11:06:58;100239.50;;;25.71;45.08
77192;BME280;66172;48.526;8.078;2023-10-09T11:09:52;100232.47;;;25.63;45.37
77192;BME280;66172;48.526;8.078;2023-10-09T11:12:42;100223.84;;;25.54;45.76
77192;BME280;66172;48.526;8.078;2023-10-09T11:15:14;100219.56;;;25.46;45.98
77192;BME280;66172;48.526;8.078;2023-10-09T11:18:02;100216.09;;;25.38;47.68
77192;BME280;66172;48.526;8.078;2023-10-09T11:20:36;100216.19;;;25.31;47.65
77192;BME280;66172;48.526;8.078;2023-10-09T11:23:04;100212.66;;;25.27;47.82
77192;BME280;66172;48.526;8.078;2023-10-09T11:25:42;100204.03;;;25.18;47.04
77192;BME280;66172;48.526;8.078;2023-10-09T11:31:06;100201.41;;;25.07;48.17
77192;BME280;66172;48.526;8.078;2023-10-09T11:33:48;100203.09;;;25.01;48.51
77192;BME280;66172;48.526;8.078;2023-10-09T11:36:21;100204.38;;;24.93;48.19
77192;BME280;66172;48.526;8.078;2023-10-09T11:39:00;100197.25;;;24.89;50.15
77192;BME280;66172;48.526;8.078;2023-10-09T11:41:40;100196.91;;;24.87;50.73
77192;BME280;66172;48.526;8.078;2023-10-09T11:44:07;100194.47;;;24.89;49.15
77192;BME280;66172;48.526;8.078;2023-10-09T11:46:59;100187.03;;;24.78;48.59
77192;BME280;66172;48.526;8.078;2023-10-09T11:52:13;100187.19;;;24.64;51.69
77192;BME280;66172;48.526;8.078;2023-10-09T11:54:39;100186.06;;;24.62;51.88
77192;BME280;66172;48.526;8.078;2023-10-09T11:57:05;100183.28;;;24.62;50.20
77192;BME280;66172;48.526;8.078;2023-10-09T11:59:32;100186.81;;;24.66;49.07
77192;BME280;66172;48.526;8.078;2023-10-09T12:02:09;100181.25;;;24.66;49.19
77192;BME280;66172;48.526;8.078;2023-10-09T12:04:41;100177.97;;;24.71;48.74
77192;BME280;66172;48.526;8.078;2023-10-09T12:07:10;100172.75;;;24.76;49.25
77192;BME280;66172;48.526;8.078;2023-10-09T12:09:37;100164.72;;;24.82;48.86
77192;BME280;66172;48.526;8.078;2023-10-09T12:12:05;100161.94;;;24.82;48.95
77192;BME280;66172;48.526;8.078;2023-10-09T12:14:32;100157.50;;;24.88;48.88
77192;BME280;66172;48.526;8.078;2023-10-09T12:17:07;100158.34;;;24.85;49.28
77192;BME280;66172;48.526;8.078;2023-10-09T12:19:39;100151.16;;;24.88;48.78
77192;BME280;66172;48.526;8.078;2023-10-09T12:22:07;100156.06;;;24.76;49.05
77192;BME280;66172;48.526;8.078;2023-10-09T12:24:36;100151.28;;;24.77;48.84
77192;BME280;66172;48.526;8.078;2023-10-09T12:27:03;100144.34;;;24.92;48.37
77192;BME280;66172;48.526;8.078;2023-10-09T12:29:35;100144.63;;;25.01;47.76
77192;BME280;66172;48.526;8.078;2023-10-09T12:32:01;100132.72;;;24.67;47.74
77192;BME280;66172;48.526;8.078;2023-10-09T12:34:28;100142.56;;;24.75;48.37
77192;BME280;66172;48.526;8.078;2023-10-09T12:36:57;100130.22;;;24.76;47.20
77192;BME280;66172;48.526;8.078;2023-10-09T12:39:27;100124.78;;;24.99;47.27
77192;BME280;66172;48.526;8.078;2023-10-09T12:41:59;100122.81;;;24.96;46.62
77192;BME280;66172;48.526;8.078;2023-10-09T12:44:35;100117.47;;;25.35;47.36
77192;BME280;66172;48.526;8.078;2023-10-09T12:47:08;100110.06;;;25.75;46.69
77192;BME280;66172;48.526;8.078;2023-10-09T12:49:37;100120.69;;;26.04;45.92
77192;BME280;66172;48.526;8.078;2023-10-09T12:52:09;100115.09;;;26.27;45.13
77192;BME280;66172;48.526;8.078;2023-10-09T12:54:44;100112.69;;;26.49;45.07
77192;BME280;66172;48.526;8.078;2023-10-09T12:57:12;100102.28;;;26.69;43.85
77192;BME280;66172;48.526;8.078;2023-10-09T12:59:40;100099.91;;;26.87;43.41
77192;BME280;66172;48.526;8.078;2023-10-09T13:02:14;100099.06;;;27.06;40.53
77192;BME280;66172;48.526;8.078;2023-10-09T13:04:55;100093.16;;;27.20;39.30
77192;BME280;66172;48.526;8.078;2023-10-09T13:07:21;100099.88;;;27.23;37.71
77192;BME280;66172;48.526;8.078;2023-10-09T13:09:48;100104.25;;;27.40;37.76
77192;BME280;66172;48.526;8.078;2023-10-09T13:12:33;100105.84;;;27.57;36.28
77192;BME280;66172;48.526;8.078;2023-10-09T13:14:59;100111.50;;;27.70;37.79
77192;BME280;66172;48.526;8.078;2023-10-09T13:17:25;100099.84;;;27.88;36.87
77192;BME280;66172;48.526;8.078;2023-10-09T13:19:53;100102.81;;;27.97;35.89
77192;BME280;66172;48.526;8.078;2023-10-09T13:22:20;100098.34;;;27.99;35.73
77192;BME280;66172;48.526;8.078;2023-10-09T13:24:48;100093.44;;;28.03;36.01
77192;BME280;66172;48.526;8.078;2023-10-09T13:27:15;100089.69;;;27.94;36.02
77192;BME280;66172;48.526;8.078;2023-10-09T13:29:47;100100.25;;;28.02;35.23
77192;BME280;66172;48.526;8.078;2023-10-09T13:32:13;100090.50;;;27.94;36.17
77192;BME280;66172;48.526;8.078;2023-10-09T13:34:40;100084.56;;;27.92;35.91
77192;BME280;66172;48.526;8.078;2023-10-09T13:37:11;100075.19;;;27.99;35.78
77192;BME280;66172;48.526;8.078;2023-10-09T13:39:42;100074.22;;;28.05;35.73
77192;BME280;66172;48.526;8.078;2023-10-09T13:42:21;100083.81;;;28.04;35.94
77192;BME280;66172;48.526;8.078;2023-10-09T13:44:51;100082.28;;;27.87;36.10
77192;BME280;66172;48.526;8.078;2023-10-09T13:47:19;100090.38;;;27.69;36.12
77192;BME280;66172;48.526;8.078;2023-10-09T13:49:49;100081.81;;;27.60;37.15
77192;BME280;66172;48.526;8.078;2023-10-09T13:52:19;100089.00;;;27.61;37.38
77192;BME280;66172;48.526;8.078;2023-10-09T13:54:47;100087.88;;;27.58;37.43
77192;BME280;66172;48.526;8.078;2023-10-09T13:57:15;100086.09;;;27.48;37.71